createdAt,value
2019-04-25T00:01:09.012Z,90.30
2019-04-25T00:06:17.359Z,89.50
2019-04-25T00:11:24.752Z,88.80
2019-04-25T00:16:32.997Z,88.00
2019-04-25T00:21:42.531Z,89.70
2019-04-25T00:26:52.524Z,89.50
2019-04-25T00:32:01.536Z,88.80
2019-04-25T00:37:08.953Z,88.20
2019-04-25T00:42:16.223Z,84.80
2019-04-25T00:47:23.585Z,81.10
2019-04-25T00:52:31.342Z,80.10
2019-04-25T00:57:42.678Z,80.30
2019-04-25T01:02:52.554Z,78.30
2019-04-25T01:07:59.582Z,78.00
2019-04-25T01:13:07.646Z,77.40
2019-04-25T01:18:15.256Z,77.60
2019-04-25T01:23:23.712Z,76.90
2019-04-25T01:28:31.253Z,75.20
2019-04-25T01:33:39.769Z,74.80
2019-04-25T01:38:49.079Z,74.20
2019-04-25T01:43:59.615Z,73.30
2019-04-25T01:49:06.325Z,73.70
2019-04-25T01:54:14.099Z,74.60
2019-04-25T01:59:21.329Z,73.80
2019-04-25T02:04:29.421Z,72.90
2019-04-25T02:09:37.318Z,71.40
2019-04-25T02:14:45.196Z,70.90
2019-04-25T02:19:54.494Z,70.60
2019-04-25T02:25:01.099Z,70.30
2019-04-25T02:30:10.663Z,70.40
2019-04-25T02:35:17.891Z,69.30
2019-04-25T02:40:25.482Z,68.20
2019-04-25T02:45:34.472Z,67.00
2019-04-25T02:50:41.350Z,67.20
2019-04-25T02:55:48.730Z,67.30
2019-04-25T03:01:02.844Z,65.60
2019-04-25T03:06:07.488Z,65.60
2019-04-25T03:11:15.021Z,64.50
2019-04-25T03:16:21.797Z,64.10
2019-04-25T03:21:31.196Z,64.70
2019-04-25T03:26:40.635Z,63.90
2019-04-25T03:31:47.232Z,64.20
2019-04-25T03:36:54.511Z,62.90
2019-04-25T03:42:02.249Z,62.10
2019-04-25T03:47:09.945Z,60.70
2019-04-25T03:52:17.553Z,59.70
2019-04-25T03:57:24.765Z,59.80
2019-04-25T04:07:55.532Z,58.80
2019-04-25T04:13:04.195Z,59.10
2019-04-25T04:18:14.458Z,57.90
2019-04-25T04:23:23.222Z,57.40
2019-04-25T04:28:30.511Z,57.80
2019-04-25T04:33:37.816Z,54.30
2019-04-25T04:38:45.118Z,54.10
2019-04-25T04:43:54.021Z,55.20
2019-04-25T04:49:03.900Z,57.30
2019-04-25T04:54:13.233Z,55.90
2019-04-25T04:59:19.852Z,55.60
2019-04-25T05:04:28.790Z,54.70
2019-04-25T05:09:36.069Z,55.80
2019-04-25T05:14:43.660Z,56.40
2019-04-25T05:19:51.108Z,55.40
2019-04-25T05:24:58.150Z,56.00
2019-04-25T05:30:09.038Z,55.20
2019-04-25T05:35:16.338Z,55.60
2019-04-25T05:40:24.439Z,55.30
2019-04-25T05:45:34.034Z,54.80
2019-04-25T05:50:41.249Z,55.60
2019-04-25T05:55:48.346Z,54.40
2019-04-25T06:00:56.333Z,54.20
2019-04-25T06:06:04.539Z,53.50
2019-04-25T06:11:15.410Z,53.00
2019-04-25T06:16:25.732Z,52.60
2019-04-25T06:21:33.749Z,52.80
2019-04-25T06:26:43.333Z,52.60
2019-04-25T06:31:50.656Z,51.20
2019-04-25T06:36:59.200Z,52.50
2019-04-25T06:42:06.846Z,50.30
2019-04-25T06:47:15.140Z,50.90
2019-04-25T06:52:27.729Z,51.70
2019-04-25T06:57:34.089Z,50.20
2019-04-25T07:02:41.417Z,49.10
2019-04-25T07:07:49.408Z,51.40
2019-04-25T07:12:58.409Z,51.70
2019-04-25T07:18:06.676Z,51.10
2019-04-25T07:23:14.431Z,50.40
2019-04-25T07:28:44.031Z,48.80
2019-04-25T07:33:53.199Z,49.00
2019-04-25T07:39:08.227Z,48.90
2019-04-25T07:44:11.591Z,49.50
2019-04-25T07:49:19.640Z,49.60
2019-04-25T07:54:27.864Z,48.20
2019-04-25T07:59:36.447Z,49.50
2019-04-25T08:04:45.358Z,49.00
2019-04-25T08:09:54.136Z,49.10
2019-04-25T08:15:01.593Z,48.30
2019-04-25T08:20:09.634Z,48.10
2019-04-25T08:25:17.505Z,48.10
2019-04-25T08:30:24.893Z,46.70
2019-04-25T08:35:34.194Z,47.00
2019-04-25T08:40:44.099Z,47.60
2019-04-25T08:46:13.913Z,47.60
2019-04-25T08:51:50.151Z,47.80
2019-04-25T08:56:59.297Z,44.60
2019-04-25T09:02:11.348Z,45.30
2019-04-25T09:07:18.777Z,44.90
2019-04-25T09:12:28.078Z,43.90
2019-04-25T09:17:36.663Z,45.00
2019-04-25T09:22:45.582Z,45.10
2019-04-25T09:27:54.361Z,46.50
2019-04-25T09:33:03.082Z,45.60
2019-04-25T09:38:11.095Z,46.00
2019-04-25T09:43:18.156Z,45.20
2019-04-25T09:48:25.783Z,45.40
2019-04-25T09:53:34.288Z,45.50
2019-04-25T09:58:44.661Z,45.70
2019-04-25T10:03:55.758Z,45.20
2019-04-25T10:09:05.669Z,45.60
2019-04-25T10:14:16.507Z,45.90
2019-04-25T10:19:23.928Z,46.10
2019-04-25T10:24:31.265Z,46.00
2019-04-25T10:29:44.822Z,45.70
2019-04-25T10:34:47.373Z,45.70
2019-04-25T10:39:55.856Z,45.70
2019-04-25T10:45:04.155Z,46.60
2019-04-25T10:50:30.653Z,45.90
2019-04-25T11:33:49.944Z,57.40
2019-04-25T11:38:59.307Z,52.30
2019-04-25T11:44:07.884Z,52.10
2019-04-25T11:49:16.398Z,52.30
2019-04-25T11:54:24.262Z,52.50
2019-04-25T11:59:33.956Z,52.50
2019-04-25T12:04:42.561Z,52.70
2019-04-25T12:09:50.719Z,52.90
2019-04-25T12:14:58.533Z,53.40
2019-04-25T12:20:07.217Z,53.90
2019-04-25T12:25:15.678Z,52.90
2019-04-25T12:30:36.420Z,52.80
2019-04-25T12:35:34.104Z,53.10
2019-04-25T12:40:43.279Z,52.90
2019-04-25T12:45:52.834Z,52.50
2019-04-25T12:51:00.771Z,52.80
2019-04-25T12:56:09.405Z,52.80
2019-04-25T13:01:17.828Z,53.30
2019-04-25T13:06:25.569Z,53.60
2019-04-25T13:11:34.853Z,54.50
2019-04-25T13:16:44.222Z,54.20
2019-04-25T13:21:52.215Z,54.20
2019-04-25T13:27:01.222Z,54.80
2019-04-25T13:32:10.398Z,55.30
2019-04-25T13:37:18.953Z,55.60
2019-04-25T13:42:27.145Z,56.40
2019-04-25T13:47:36.247Z,57.10
2019-04-25T13:52:44.150Z,58.60
2019-04-25T13:57:53.105Z,58.90
2019-04-25T14:03:01.680Z,59.40
2019-04-25T14:08:10.096Z,59.30
2019-04-25T14:13:17.987Z,59.60
2019-04-25T14:18:27.371Z,59.80
2019-04-25T14:23:35.738Z,60.40
2019-04-25T14:28:44.288Z,60.90
2019-04-25T14:33:52.255Z,61.00
2019-04-25T14:39:00.185Z,61.00
2019-04-25T14:44:09.214Z,61.30
2019-04-25T14:49:17.221Z,61.60
2019-04-25T14:54:26.526Z,61.90
2019-04-25T14:59:34.776Z,62.00
2019-04-25T15:04:42.547Z,62.20
2019-04-25T15:09:50.260Z,62.70
2019-04-25T15:14:58.468Z,62.90
2019-04-25T15:20:08.540Z,62.80
2019-04-25T15:25:16.726Z,63.00
2019-04-25T15:30:29.075Z,63.30
2019-04-25T15:35:37.762Z,63.40
2019-04-25T15:40:47.456Z,63.70
2019-04-25T15:45:57.475Z,63.80
2019-04-25T15:51:06.495Z,63.90
2019-04-25T15:56:15.984Z,64.40
2019-04-25T16:01:24.416Z,64.70
2019-04-25T16:06:32.338Z,65.10
2019-04-25T16:11:41.255Z,65.50
2019-04-25T16:16:50.482Z,65.90
2019-04-25T16:21:58.446Z,65.80
2019-04-25T16:27:08.200Z,65.60
2019-04-25T16:32:20.679Z,65.40
2019-04-25T16:37:27.952Z,65.70
2019-04-25T16:42:37.612Z,65.70
2019-04-25T16:47:46.236Z,66.60
2019-04-25T16:52:54.327Z,66.30
2019-04-25T16:58:02.318Z,66.70
2019-04-25T17:03:10.212Z,67.60
2019-04-25T17:08:20.136Z,67.80
2019-04-25T17:13:29.483Z,68.40
2019-04-25T17:18:39.782Z,68.20
2019-04-25T17:23:49.577Z,68.90
2019-04-25T17:28:58.568Z,69.10
2019-04-25T17:34:08.022Z,69.00
2019-04-25T17:39:17.037Z,69.70
2019-04-25T17:44:25.697Z,70.00
2019-04-25T17:49:34.528Z,69.30
2019-04-25T17:54:43.059Z,69.50
2019-04-25T17:59:51.304Z,70.00
2019-04-25T18:04:59.557Z,69.90
2019-04-25T18:10:09.327Z,69.70
2019-04-25T18:15:18.544Z,68.90
2019-04-25T18:20:27.451Z,68.50
2019-04-25T18:25:35.931Z,69.20
2019-04-25T18:30:46.824Z,68.20
2019-04-25T18:35:55.919Z,67.60
2019-04-25T18:41:04.821Z,68.30
2019-04-25T18:46:14.315Z,68.00
2019-04-25T18:51:22.367Z,68.50
2019-04-25T18:56:31.750Z,68.20
2019-04-25T19:01:41.644Z,68.80
2019-04-25T19:06:55.215Z,69.10
2019-04-25T19:11:58.816Z,69.40
2019-04-25T19:17:08.427Z,69.10
2019-04-25T19:22:16.679Z,69.50
2019-04-25T19:27:25.129Z,69.10
2019-04-25T19:32:53.097Z,68.30
2019-04-25T19:38:02.091Z,68.20
2019-04-25T19:43:11.913Z,68.60
2019-04-25T19:48:19.895Z,68.70
2019-04-25T19:53:28.015Z,69.30
2019-04-25T19:58:36.576Z,71.30
2019-04-25T20:03:51.855Z,71.50
2019-04-25T20:08:56.915Z,71.70
2019-04-25T20:14:05.638Z,71.40
2019-04-25T20:19:13.682Z,71.60
2019-04-25T20:24:22.141Z,72.20
2019-04-25T20:29:30.417Z,72.70
2019-04-25T20:34:38.687Z,71.70
2019-04-25T20:39:47.288Z,71.00
2019-04-25T20:44:56.005Z,71.00
2019-04-25T20:50:04.772Z,71.50
2019-04-25T20:55:12.842Z,71.90
2019-04-25T21:00:23.837Z,71.70
2019-04-25T21:05:32.031Z,71.80
2019-04-25T21:10:40.067Z,74.50
2019-04-25T21:15:50.711Z,76.40
2019-04-25T21:20:57.709Z,77.20
2019-04-25T21:26:05.945Z,77.90
2019-04-25T21:31:14.319Z,77.10
2019-04-25T21:36:22.963Z,77.00
2019-04-25T21:41:32.736Z,77.90
2019-04-25T21:46:40.893Z,77.60
2019-04-25T21:51:48.809Z,77.20
2019-04-25T21:56:57.434Z,77.80
2019-04-25T22:02:05.930Z,78.90
2019-04-25T22:07:14.603Z,77.70
2019-04-25T22:12:22.773Z,77.90
2019-04-25T22:17:30.766Z,78.00
2019-04-25T22:22:39.395Z,78.10
2019-04-25T22:27:47.955Z,78.60
2019-04-25T22:32:57.143Z,78.40
2019-04-25T22:38:06.764Z,78.20
2019-04-25T22:43:15.452Z,78.30
2019-04-25T22:48:24.971Z,78.00
2019-04-25T22:53:33.049Z,78.90
2019-04-25T22:58:42.313Z,78.90
2019-04-25T23:03:51.742Z,78.70
2019-04-25T23:09:00.544Z,78.80
2019-04-25T23:14:10.934Z,78.30
2019-04-25T23:19:19.065Z,78.60
2019-04-25T23:24:30.750Z,80.00
2019-04-25T23:29:39.989Z,79.00
2019-04-25T23:34:48.652Z,78.60
2019-04-25T23:39:57.042Z,77.50
2019-04-25T23:45:07.995Z,77.50
2019-04-25T23:50:17.558Z,77.30
2019-04-25T23:55:25.885Z,77.60
